Time;durP1;ratioP1;P1;durP2;ratioP2;P2;SDS_P1;SDS_P2;PMS_P1;PMS_P2;Temp;Humidity;BMP_temperature;BMP_pressure;BME280_temperature;BME280_humidity;BME280_pressure;Samples;Min_cycle;Max_cycle;Signal;HPM_P1;HPM_P2
2024/02/09 00:00:54;;;;;;;6.25;4.75;;;7.50;83.60;;;;;;5026327;28;20034;-84
2024/02/09 00:03:21;;;;;;;6.28;4.80;;;7.50;83.60;;;;;;5028274;28;20129;-84
2024/02/09 00:05:50;;;;;;;6.20;5.07;;;7.60;83.60;;;;;;5029405;28;20033;-84
2024/02/09 00:08:21;;;;;;;6.32;4.90;;;7.60;83.70;;;;;;5024076;28;20037;-84
2024/02/09 00:10:47;;;;;;;7.15;5.30;;;7.60;83.70;;;;;;5030722;28;20473;-80
2024/02/09 00:13:17;;;;;;;6.50;4.95;;;7.60;83.60;;;;;;5011999;28;20343;-83
2024/02/09 00:15:46;;;;;;;6.28;4.88;;;7.60;83.60;;;;;;5016982;28;20022;-83
2024/02/09 00:18:16;;;;;;;8.13;5.85;;;7.60;83.60;;;;;;5028228;28;20033;-84
2024/02/09 00:20:45;;;;;;;6.32;4.60;;;7.60;83.60;;;;;;5033549;28;20029;-82
2024/02/09 00:23:15;;;;;;;7.00;5.32;;;7.60;83.60;;;;;;5031255;28;20017;-79
2024/02/09 00:25:41;;;;;;;6.53;4.72;;;7.60;83.50;;;;;;5032245;28;20389;-79
2024/02/09 00:28:13;;;;;;;6.63;5.07;;;7.70;83.60;;;;;;5031498;28;20077;-83
2024/02/09 00:30:40;;;;;;;6.90;5.20;;;7.70;83.60;;;;;;5031641;28;20057;-83
2024/02/09 00:33:09;;;;;;;6.40;4.60;;;7.70;83.60;;;;;;5017258;28;20029;-79
2024/02/09 00:35:42;;;;;;;7.10;5.30;;;7.70;83.60;;;;;;5026707;28;20433;-83
2024/02/09 00:38:15;;;;;;;7.07;5.60;;;7.70;83.60;;;;;;5013460;28;20091;-83
2024/02/09 00:40:41;;;;;;;6.43;4.70;;;7.70;83.50;;;;;;5024642;28;20105;-80
2024/02/09 00:43:07;;;;;;;6.80;5.43;;;7.70;83.50;;;;;;5030154;28;20026;-80
2024/02/09 00:45:36;;;;;;;6.78;5.07;;;7.80;83.60;;;;;;5031170;28;20477;-80
2024/02/09 00:48:03;;;;;;;7.25;5.35;;;7.80;83.60;;;;;;5013212;28;20048;-83
2024/02/09 00:50:30;;;;;;;6.40;4.70;;;7.80;83.50;;;;;;5028503;28;20029;-84
2024/02/09 00:53:00;;;;;;;6.63;4.78;;;7.80;83.50;;;;;;5034528;28;20068;-83
2024/02/09 00:55:31;;;;;;;6.72;4.68;;;7.80;83.50;;;;;;4999818;28;20049;-83
2024/02/09 00:57:57;;;;;;;8.13;5.60;;;7.90;83.50;;;;;;5042933;28;20025;-83
2024/02/09 01:00:23;;;;;;;7.28;5.47;;;7.90;83.50;;;;;;5060046;28;20021;-83
2024/02/09 01:02:51;;;;;;;6.30;4.60;;;7.90;83.40;;;;;;5033451;28;20026;-80
2024/02/09 01:05:18;;;;;;;6.88;5.10;;;7.90;83.40;;;;;;5017141;28;20022;-79
2024/02/09 01:07:46;;;;;;;7.00;4.85;;;7.90;83.40;;;;;;5025330;28;20349;-87
2024/02/09 01:10:13;;;;;;;6.85;4.70;;;8.00;83.40;;;;;;5047000;28;20116;-82
2024/02/09 02:46:20;;;;;;;4.32;2.28;;;9.00;82.90;;;;;;5030773;28;20477;-80
2024/02/09 03:05:26;;;;;;;3.42;2.47;;;9.20;82.90;;;;;;5035951;28;20036;-83
2024/02/09 03:07:53;;;;;;;3.42;2.30;;;9.20;82.90;;;;;;5029992;28;20084;-82
2024/02/09 03:10:20;;;;;;;4.43;2.40;;;9.20;82.80;;;;;;5029395;28;20031;-82
2024/02/09 03:12:46;;;;;;;3.00;2.50;;;9.30;82.90;;;;;;5028013;28;20063;-83
2024/02/09 03:15:14;;;;;;;3.70;2.60;;;9.30;82.90;;;;;;5047787;28;20116;-83
2024/02/09 03:17:41;;;;;;;3.67;2.60;;;9.40;83.00;;;;;;5031598;28;20033;-83
2024/02/09 03:20:10;;;;;;;4.13;2.40;;;9.40;83.00;;;;;;5011055;28;20468;-87
2024/02/09 03:22:37;;;;;;;4.57;2.55;;;9.40;82.90;;;;;;5033270;28;20056;-86
2024/02/09 03:25:07;;;;;;;4.53;2.60;;;9.40;82.90;;;;;;5027578;28;20021;-88
2024/02/09 03:27:35;;;;;;;4.53;2.40;;;9.50;82.90;;;;;;5029939;28;20524;-79
2024/02/09 03:30:06;;;;;;;3.83;2.47;;;9.50;82.90;;;;;;5024274;28;20032;-79
2024/02/09 03:32:33;;;;;;;4.47;2.60;;;9.50;82.90;;;;;;5054018;28;20022;-79
2024/02/09 03:35:01;;;;;;;3.03;2.22;;;9.50;82.90;;;;;;5030803;28;20029;-88
2024/02/09 03:37:32;;;;;;;4.55;2.60;;;9.60;82.90;;;;;;5035749;28;20449;-88
2024/02/09 03:40:00;;;;;;;7.13;2.70;;;9.60;82.90;;;;;;5028455;28;20025;-88
2024/02/09 03:42:26;;;;;;;3.97;2.63;;;9.60;82.90;;;;;;5030614;28;20132;-82
2024/02/09 03:44:56;;;;;;;4.25;2.22;;;9.70;82.90;;;;;;5030854;28;20061;-82
2024/02/09 03:47:25;;;;;;;3.60;2.15;;;9.70;82.90;;;;;;5041681;28;20492;-83
2024/02/09 03:49:53;;;;;;;3.50;2.45;;;9.70;82.90;;;;;;5028287;28;20045;-87
2024/02/09 03:52:20;;;;;;;2.90;2.00;;;9.70;82.90;;;;;;5031558;28;20017;-88
2024/02/09 03:54:53;;;;;;;3.72;2.40;;;9.70;82.90;;;;;;5028686;28;20528;-93
2024/02/09 03:57:23;;;;;;;3.50;2.33;;;9.80;83.00;;;;;;5027694;28;20087;-84
2024/02/09 03:59:50;;;;;;;3.17;2.28;;;9.80;82.90;;;;;;5011796;28;20055;-84
2024/02/09 04:02:20;;;;;;;3.92;2.55;;;9.80;82.90;;;;;;5027610;28;20100;-85
2024/02/09 04:04:49;;;;;;;3.35;2.20;;;9.90;83.00;;;;;;5025601;28;20057;-85
2024/02/09 04:07:17;;;;;;;3.13;2.03;;;9.90;82.90;;;;;;5026605;28;20028;-80
2024/02/09 04:09:43;;;;;;;2.78;2.00;;;9.90;82.90;;;;;;5024196;28;20466;-80
2024/02/09 04:12:09;;;;;;;5.15;2.10;;;9.90;82.90;;;;;;5026961;28;20402;-86
2024/02/09 04:14:35;;;;;;;3.28;2.20;;;9.90;82.90;;;;;;5015902;28;20111;-86
2024/02/09 04:17:01;;;;;;;3.85;2.40;;;9.90;82.90;;;;;;5028173;28;20501;-86
2024/02/09 04:19:27;;;;;;;4.32;2.50;;;9.90;82.90;;;;;;5028858;28;20441;-92
2024/02/09 04:21:53;;;;;;;2.88;2.00;;;10.00;82.90;;;;;;5027386;28;20080;-93
2024/02/09 04:24:26;;;;;;;3.08;2.25;;;10.00;83.50;;;;;;5015787;28;20033;-86
2024/02/09 04:26:53;;;;;;;3.55;2.20;;;10.00;82.90;;;;;;5018284;28;20168;-93
2024/02/09 04:29:22;;;;;;;2.88;2.15;;;10.00;82.90;;;;;;5034348;28;20026;-84
2024/02/09 04:31:51;;;;;;;3.08;1.92;;;10.10;82.90;;;;;;5046074;28;20384;-86
2024/02/09 04:34:17;;;;;;;2.00;1.77;;;10.10;82.90;;;;;;5023545;28;20021;-86
2024/02/09 04:36:45;;;;;;;2.95;1.80;;;10.10;82.90;;;;;;5016274;28;20017;-86
2024/02/09 04:39:11;;;;;;;2.60;1.85;;;10.10;82.90;;;;;;5014217;28;20021;-80
2024/02/09 04:41:38;;;;;;;3.72;2.08;;;10.20;82.90;;;;;;5014679;28;20056;-84
2024/02/09 04:44:05;;;;;;;3.10;2.08;;;10.20;82.90;;;;;;5049262;28;20026;-83
2024/02/09 04:46:34;;;;;;;2.53;2.20;;;10.20;82.90;;;;;;5033706;28;20381;-84
2024/02/09 04:49:01;;;;;;;2.47;2.13;;;10.20;82.90;;;;;;5028537;28;20408;-93
2024/02/09 04:51:28;;;;;;;3.33;2.20;;;10.20;82.90;;;;;;5046104;28;20026;-84
2024/02/09 04:53:55;;;;;;;4.93;2.33;;;10.30;83.00;;;;;;5040999;28;20057;-79
2024/02/09 04:56:30;;;;;;;3.58;2.17;;;10.30;83.00;;;;;;5031370;28;20025;-84
2024/02/09 04:58:59;;;;;;;2.22;1.98;;;10.30;83.00;;;;;;5044032;28;20026;-86
2024/02/09 05:01:27;;;;;;;4.28;2.00;;;10.30;82.90;;;;;;5035792;28;20052;-84
2024/02/09 05:03:57;;;;;;;2.60;1.90;;;10.30;82.90;;;;;;5030061;28;20129;-92
2024/02/09 05:06:28;;;;;;;3.80;2.10;;;10.30;82.90;;;;;;5021788;28;20029;-83
2024/02/09 05:08:55;;;;;;;2.15;1.85;;;10.40;83.00;;;;;;5031326;28;20029;-93
2024/02/09 05:11:22;;;;;;;2.58;2.00;;;10.40;82.90;;;;;;5029483;28;20021;-93
2024/02/09 05:13:51;;;;;;;3.30;2.08;;;10.40;82.90;;;;;;5033089;28;20042;-94
2024/02/09 05:16:17;;;;;;;1.88;1.67;;;10.40;82.90;;;;;;5028117;28;20032;-84
2024/02/09 05:18:43;;;;;;;3.67;1.83;;;10.40;82.90;;;;;;5030768;28;20037;-93
2024/02/09 05:21:09;;;;;;;3.22;2.00;;;10.40;82.90;;;;;;5028923;28;20037;-94
2024/02/09 05:23:38;;;;;;;2.00;1.63;;;10.40;82.90;;;;;;5013508;28;20040;-83
2024/02/09 05:26:07;;;;;;;1.63;1.52;;;10.50;82.90;;;;;;5031811;28;20564;-86
2024/02/09 05:28:38;;;;;;;3.20;1.90;;;10.50;82.90;;;;;;5013147;28;20033;-80
2024/02/09 05:31:05;;;;;;;2.22;1.77;;;10.50;82.90;;;;;;5031796;28;20025;-80
2024/02/09 05:33:37;;;;;;;3.30;1.73;;;10.50;82.90;;;;;;5010148;28;20064;-84
2024/02/09 05:36:04;;;;;;;3.00;1.75;;;10.50;82.90;;;;;;5031614;28;20021;-92
2024/02/09 05:38:32;;;;;;;2.08;1.50;;;10.50;82.90;;;;;;5030453;28;20041;-92
2024/02/09 05:40:59;;;;;;;3.10;1.70;;;10.60;83.00;;;;;;5015573;28;20509;-80
2024/02/09 05:43:25;;;;;;;3.03;2.17;;;10.60;82.90;;;;;;5027170;28;20041;-86
2024/02/09 05:45:51;;;;;;;2.17;1.83;;;10.60;82.90;;;;;;5014199;28;20032;-80
2024/02/09 05:48:17;;;;;;;2.13;1.73;;;10.60;82.90;;;;;;5025206;28;20046;-93
2024/02/09 05:50:42;;;;;;;2.10;1.77;;;10.60;82.90;;;;;;5043390;28;20510;-84
2024/02/09 05:53:08;;;;;;;2.50;1.67;;;10.60;82.90;;;;;;5030697;28;20452;-92
2024/02/09 05:55:34;;;;;;;2.17;1.88;;;10.70;82.90;;;;;;5049713;28;20041;-86
2024/02/09 05:58:01;;;;;;;1.95;1.75;;;10.70;82.90;;;;;;5029179;28;20481;-80
2024/02/09 06:00:27;;;;;;;2.00;1.80;;;10.70;82.90;;;;;;5046364;28;20076;-94
2024/02/09 06:02:53;;;;;;;2.13;1.80;;;10.70;82.90;;;;;;5011806;28;20057;-86
2024/02/09 06:05:22;;;;;;;2.35;1.80;;;10.70;82.90;;;;;;5044779;28;20424;-86
2024/02/09 06:07:48;;;;;;;2.33;1.80;;;10.70;82.90;;;;;;5013753;28;20057;-80
2024/02/09 06:10:15;;;;;;;2.83;1.80;;;10.80;82.90;;;;;;5038124;28;20415;-80
2024/02/09 06:12:43;;;;;;;2.38;1.77;;;10.80;82.90;;;;;;5011017;28;20060;-80
2024/02/09 06:15:10;;;;;;;2.63;1.80;;;10.80;82.90;;;;;;5029396;28;20441;-93
2024/02/09 06:17:38;;;;;;;2.25;1.75;;;10.80;82.90;;;;;;5031178;28;20071;-88
2024/02/09 06:20:08;;;;;;;2.00;1.80;;;10.80;82.90;;;;;;5027964;28;20033;-93
2024/02/09 06:22:37;;;;;;;2.45;1.80;;;10.80;82.90;;;;;;5014411;28;20032;-92
2024/02/09 06:25:05;;;;;;;2.97;1.70;;;10.90;82.90;;;;;;5013932;28;20444;-87
2024/02/09 06:27:31;;;;;;;1.73;1.60;;;10.80;82.90;;;;;;5046708;28;20021;-92
2024/02/09 06:29:58;;;;;;;2.40;1.90;;;10.80;82.90;;;;;;5011565;28;20026;-87
2024/02/09 06:32:26;;;;;;;2.00;1.65;;;10.90;82.90;;;;;;5044147;28;20159;-86
2024/02/09 06:34:53;;;;;;;2.65;1.88;;;10.80;82.80;;;;;;5031945;28;20378;-89
2024/02/09 06:37:20;;;;;;;2.45;1.75;;;10.90;82.90;;;;;;5014777;28;20523;-82
2024/02/09 06:39:46;;;;;;;2.35;1.55;;;10.90;82.90;;;;;;5011568;28;20022;-87
2024/02/09 06:42:12;;;;;;;2.58;1.60;;;10.90;82.80;;;;;;5031306;28;20111;-81
2024/02/09 06:44:43;;;;;;;2.00;1.63;;;10.90;82.80;;;;;;5046000;28;20116;-87
2024/02/09 06:47:12;;;;;;;2.45;1.80;;;10.90;82.80;;;;;;5017201;28;20030;-93
2024/02/09 06:49:45;;;;;;;2.20;1.73;;;11.00;82.90;;;;;;5030169;28;20464;-91
2024/02/09 06:52:13;;;;;;;2.45;1.70;;;10.90;82.80;;;;;;5009033;28;20021;-80
2024/02/09 06:54:39;;;;;;;1.55;1.45;;;11.00;82.90;;;;;;5024976;28;20026;-83
2024/02/09 06:57:08;;;;;;;2.17;1.70;;;11.00;82.90;;;;;;5013973;28;20033;-87
2024/02/09 06:59:36;;;;;;;2.75;1.60;;;11.00;82.90;;;;;;5027757;28;20520;-86
2024/02/09 07:02:05;;;;;;;2.08;1.55;;;11.00;82.90;;;;;;5020162;28;20033;-78
2024/02/09 07:04:31;;;;;;;2.00;1.63;;;11.00;82.90;;;;;;5029517;28;20033;-85
2024/02/09 07:06:56;;;;;;;2.55;1.70;;;11.00;82.80;;;;;;5033394;28;20124;-79
2024/02/09 07:09:23;;;;;;;2.00;1.55;;;11.10;82.90;;;;;;5028421;28;20036;-85
2024/02/09 07:11:53;;;;;;;1.85;1.67;;;11.00;82.80;;;;;;5015263;28;20025;-96
2024/02/09 07:14:19;;;;;;;1.38;1.27;;;11.00;82.80;;;;;;5034897;28;20068;-80
2024/02/09 07:16:50;;;;;;;1.58;1.48;;;11.10;82.80;;;;;;5036243;28;20032;-94
2024/02/09 07:19:16;;;;;;;1.48;1.38;;;11.10;82.80;;;;;;5030592;28;20096;-92
2024/02/09 07:21:42;;;;;;;2.55;1.75;;;11.10;82.80;;;;;;5028180;28;20350;-79
2024/02/09 07:24:12;;;;;;;2.28;1.65;;;11.10;82.80;;;;;;5029033;28;20040;-85
2024/02/09 07:26:38;;;;;;;1.60;1.50;;;11.10;82.80;;;;;;5030294;28;20378;-80
2024/02/09 07:29:04;;;;;;;2.42;1.70;;;11.10;82.70;;;;;;5029211;28;20029;-87
2024/02/09 07:31:30;;;;;;;1.70;1.45;;;11.20;82.80;;;;;;5031423;28;20501;-87
2024/02/09 07:33:57;;;;;;;1.58;1.48;;;11.20;82.80;;;;;;5030105;28;20036;-86
2024/02/09 07:36:23;;;;;;;2.00;1.60;;;11.20;82.80;;;;;;5029705;28;20478;-79
2024/02/09 07:38:49;;;;;;;1.67;1.58;;;11.10;82.70;;;;;;5030519;28;20025;-84
2024/02/09 07:41:19;;;;;;;1.90;1.50;;;11.20;82.80;;;;;;5029065;28;20169;-80
2024/02/09 07:43:48;;;;;;;1.98;1.45;;;11.20;82.80;;;;;;5029939;28;20116;-91
2024/02/09 07:46:15;;;;;;;1.83;1.50;;;11.20;82.80;;;;;;5045417;28;20084;-79
2024/02/09 07:48:47;;;;;;;1.55;1.40;;;11.20;82.80;;;;;;5031715;28;20550;-79
2024/02/09 07:51:16;;;;;;;1.65;1.48;;;11.20;82.90;;;;;;5056110;28;20022;-92
2024/02/09 07:53:42;;;;;;;1.88;1.52;;;11.20;82.80;;;;;;5030764;28;20075;-86
2024/02/09 07:56:07;;;;;;;2.08;1.75;;;11.20;82.80;;;;;;5013568;28;20457;-80
2024/02/09 07:58:33;;;;;;;1.98;1.60;;;11.20;82.80;;;;;;5023810;28;20017;-79
2024/02/09 08:00:59;;;;;;;2.22;1.45;;;11.30;82.80;;;;;;5030749;28;22023;-80
2024/02/09 08:03:25;;;;;;;2.45;1.50;;;11.30;82.80;;;;;;5031444;28;20123;-92
2024/02/09 08:05:51;;;;;;;1.48;1.38;;;11.20;82.70;;;;;;5018196;28;20113;-86
2024/02/09 08:08:19;;;;;;;2.42;1.70;;;11.30;82.80;;;;;;5030705;28;20033;-85
2024/02/09 08:10:45;;;;;;;2.08;1.63;;;11.30;82.80;;;;;;5041512;28;20030;-86
2024/02/09 08:13:11;;;;;;;1.70;1.60;;;11.30;82.70;;;;;;5050497;28;20041;-86
2024/02/09 08:15:37;;;;;;;2.80;1.80;;;11.30;82.70;;;;;;5039958;28;20477;-86
2024/02/09 08:18:03;;;;;;;2.78;1.50;;;11.30;82.70;;;;;;5041350;28;20053;-94
2024/02/09 08:20:29;;;;;;;1.95;1.75;;;11.30;82.70;;;;;;5015942;28;20029;-80
2024/02/09 08:22:55;;;;;;;2.20;1.65;;;11.30;82.70;;;;;;5016164;28;20076;-80
2024/02/09 08:25:21;;;;;;;1.83;1.50;;;11.40;82.80;;;;;;5032059;28;20076;-92
2024/02/09 08:27:47;;;;;;;1.92;1.70;;;11.40;82.70;;;;;;5034794;28;20469;-80
2024/02/09 08:30:13;;;;;;;1.75;1.60;;;11.40;82.70;;;;;;5030507;28;20111;-80
2024/02/09 08:32:41;;;;;;;1.75;1.50;;;11.40;82.70;;;;;;5027432;28;20481;-87
2024/02/09 08:35:07;;;;;;;2.22;1.70;;;11.40;82.70;;;;;;5034710;28;20044;-85
2024/02/09 08:37:33;;;;;;;2.08;1.70;;;11.40;82.70;;;;;;5048997;28;20487;-90
2024/02/09 08:40:00;;;;;;;2.20;1.60;;;11.40;82.70;;;;;;5033715;28;20027;-86
2024/02/09 08:42:26;;;;;;;2.08;1.75;;;11.40;82.70;;;;;;5021507;28;20026;-90
2024/02/09 08:44:53;;;;;;;1.92;1.50;;;11.40;82.40;;;;;;5004405;28;20025;-86
2024/02/09 08:47:21;;;;;;;1.88;1.58;;;11.50;82.80;;;;;;5025103;28;20053;-91
2024/02/09 08:49:48;;;;;;;2.45;1.60;;;11.40;82.70;;;;;;5035202;28;20018;-86
2024/02/09 08:52:16;;;;;;;1.55;1.40;;;11.50;82.80;;;;;;5035467;28;20033;-85
2024/02/09 08:54:41;;;;;;;1.73;1.48;;;11.50;82.80;;;;;;5048147;28;20033;-86
2024/02/09 08:57:07;;;;;;;1.85;1.50;;;11.50;82.80;;;;;;5015911;28;21157;-91
2024/02/09 08:59:35;;;;;;;1.60;1.50;;;11.50;82.80;;;;;;5016802;28;20037;-86
2024/02/09 09:02:01;;;;;;;2.05;1.63;;;11.50;82.80;;;;;;5025423;28;20030;-92
2024/02/09 09:04:27;;;;;;;1.73;1.60;;;11.60;82.80;;;;;;5013707;28;20036;-79
2024/02/09 09:06:53;;;;;;;2.15;1.55;;;11.60;82.80;;;;;;5016967;28;20029;-86
2024/02/09 09:09:21;;;;;;;2.67;1.75;;;11.60;82.80;;;;;;5014640;28;20018;-85
2024/02/09 09:11:46;;;;;;;2.63;1.52;;;11.60;82.80;;;;;;5028376;28;20073;-85
2024/02/09 09:14:12;;;;;;;1.80;1.60;;;11.60;82.80;;;;;;5031104;28;20052;-79
2024/02/09 09:16:38;;;;;;;3.28;1.63;;;11.60;82.80;;;;;;5045348;28;20049;-85
2024/02/09 09:19:07;;;;;;;1.92;1.65;;;11.70;82.80;;;;;;5030500;28;20112;-79
2024/02/09 09:21:34;;;;;;;1.60;1.50;;;11.70;82.80;;;;;;5033492;28;20045;-85
2024/02/09 09:23:59;;;;;;;2.03;1.70;;;11.70;82.80;;;;;;5032294;28;20033;-85
2024/02/09 09:26:30;;;;;;;2.17;1.65;;;11.70;82.80;;;;;;5028513;28;20052;-93
2024/02/09 09:29:00;;;;;;;2.40;1.33;;;11.70;82.80;;;;;;5025126;28;20079;-87
2024/02/09 09:31:29;;;;;;;1.83;1.60;;;11.70;82.80;;;;;;5033614;28;20477;-79
2024/02/09 09:33:59;;;;;;;2.63;1.83;;;11.70;82.80;;;;;;5024283;28;20060;-87
2024/02/09 09:36:30;;;;;;;2.22;1.70;;;11.80;82.80;;;;;;5032949;28;20040;-79
2024/02/09 09:38:57;;;;;;;2.50;1.58;;;11.80;82.80;;;;;;5014471;28;20029;-90
2024/02/09 09:41:23;;;;;;;1.98;1.45;;;11.80;82.80;;;;;;5027168;28;20021;-79
2024/02/09 09:43:50;;;;;;;2.75;1.70;;;11.80;82.70;;;;;;5015560;28;20105;-79
2024/02/09 09:46:21;;;;;;;2.45;1.77;;;11.80;82.70;;;;;;5012676;28;20030;-79
2024/02/09 09:48:51;;;;;;;2.10;1.80;;;11.90;82.80;;;;;;5029239;28;20033;-84
2024/02/09 09:51:19;;;;;;;2.72;1.75;;;11.90;82.80;;;;;;5033149;28;20477;-84
2024/02/09 09:53:50;;;;;;;1.95;1.73;;;11.90;82.80;;;;;;5031474;28;20103;-92
2024/02/09 09:56:18;;;;;;;1.95;1.52;;;11.90;82.70;;;;;;5031055;28;20056;-79
2024/02/09 09:58:45;;;;;;;2.83;1.80;;;11.90;82.70;;;;;;5030993;28;20065;-93
2024/02/09 10:01:13;;;;;;;1.90;1.70;;;11.90;82.70;;;;;;5046174;28;20071;-85
2024/02/09 10:03:39;;;;;;;2.55;1.70;;;12.00;82.70;;;;;;5025225;28;20037;-87
2024/02/09 10:06:05;;;;;;;2.50;1.88;;;12.00;82.80;;;;;;5014331;28;20067;-87
2024/02/09 10:08:35;;;;;;;2.05;1.70;;;12.00;82.70;;;;;;5030552;28;20041;-87
2024/02/09 10:11:06;;;;;;;2.30;1.80;;;12.00;82.70;;;;;;5047556;28;20049;-93
2024/02/09 10:13:33;;;;;;;2.72;1.88;;;12.00;82.70;;;;;;5031261;28;20038;-86
2024/02/09 10:16:03;;;;;;;2.42;1.80;;;12.10;82.80;;;;;;5032008;28;20089;-87
2024/02/09 10:18:33;;;;;;;2.00;1.60;;;12.10;82.80;;;;;;5026758;28;20039;-86
2024/02/09 10:21:04;;;;;;;2.17;1.70;;;12.10;82.70;;;;;;5045631;28;20021;-85
2024/02/09 10:23:32;;;;;;;3.25;1.73;;;12.10;82.70;;;;;;5026717;28;20117;-80
2024/02/09 10:26:02;;;;;;;2.55;1.65;;;12.20;82.70;;;;;;5017499;28;20056;-79
2024/02/09 10:28:29;;;;;;;2.80;1.90;;;12.20;82.70;;;;;;5045729;28;20544;-79
2024/02/09 10:30:59;;;;;;;2.00;1.52;;;12.20;82.70;;;;;;5027861;28;20099;-79
2024/02/09 10:33:26;;;;;;;2.80;1.80;;;12.20;82.70;;;;;;5031277;28;20040;-84
2024/02/09 10:35:56;;;;;;;3.63;1.85;;;12.20;82.60;;;;;;5028346;28;20029;-94
2024/02/09 10:38:27;;;;;;;2.00;1.67;;;12.20;82.60;;;;;;5032064;28;20032;-95
2024/02/09 10:40:56;;;;;;;2.42;1.90;;;12.30;82.70;;;;;;5016478;28;20036;-92
2024/02/09 10:43:23;;;;;;;2.17;1.70;;;12.30;82.60;;;;;;5014679;28;20030;-92
2024/02/09 10:45:52;;;;;;;3.55;1.83;;;12.30;82.60;;;;;;5014653;28;20608;-93
2024/02/09 10:48:34;;;;;;;2.58;1.60;;;12.40;82.70;;;;;;5046380;28;20049;-80
2024/02/09 10:51:02;;;;;;;1.73;1.48;;;12.40;82.70;;;;;;5024550;28;20061;-79
2024/02/09 10:53:30;;;;;;;1.55;1.45;;;12.40;82.60;;;;;;5029817;28;20024;-86
2024/02/09 10:56:03;;;;;;;1.75;1.48;;;12.40;82.60;;;;;;5012199;28;20025;-87
2024/02/09 10:58:33;;;;;;;1.77;1.45;;;12.40;82.60;;;;;;5026985;28;20057;-80
2024/02/09 11:01:01;;;;;;;3.67;1.80;;;12.50;82.60;;;;;;5046624;28;20032;-90
2024/02/09 11:03:28;;;;;;;3.22;1.90;;;12.50;82.60;;;;;;5012816;28;20108;-95
2024/02/09 11:05:55;;;;;;;2.97;1.83;;;12.50;82.60;;;;;;5027806;28;20041;-90
2024/02/09 11:08:21;;;;;;;2.13;1.52;;;12.50;82.60;;;;;;5015377;28;20029;-80
2024/02/09 11:11:00;;;;;;;2.97;1.58;;;12.50;82.60;;;;;;5013367;28;20169;-87
2024/02/09 11:13:28;;;;;;;2.65;1.77;;;12.60;82.60;;;;;;5030904;28;20045;-84
2024/02/09 11:15:56;;;;;;;1.77;1.48;;;12.60;82.60;;;;;;5031688;28;20510;-90
2024/02/09 11:18:21;;;;;;;1.63;1.50;;;12.60;82.60;;;;;;5044855;28;20025;-90
2024/02/09 11:20:47;;;;;;;2.45;1.60;;;12.60;82.50;;;;;;5028570;28;20454;-93
2024/02/09 11:23:14;;;;;;;1.77;1.60;;;12.70;82.50;;;;;;5030958;28;20108;-90
2024/02/09 11:25:46;;;;;;;2.40;1.90;;;12.70;82.50;;;;;;5026974;28;20129;-90
2024/02/09 11:28:13;;;;;;;2.10;1.58;;;12.70;82.50;;;;;;5024656;28;20022;-84
2024/02/09 11:30:39;;;;;;;2.55;1.70;;;12.70;82.50;;;;;;5036714;28;20036;-93
2024/02/09 11:33:07;;;;;;;2.40;2.08;;;12.80;82.50;;;;;;5013254;28;20022;-84
2024/02/09 11:35:32;;;;;;;3.65;2.15;;;12.70;82.40;;;;;;5030030;28;20113;-84
2024/02/09 11:37:58;;;;;;;2.33;1.63;;;12.80;82.50;;;;;;5030435;28;20399;-93
2024/02/09 11:40:24;;;;;;;3.08;1.70;;;12.80;82.40;;;;;;5039561;28;20513;-93
2024/02/09 11:42:50;;;;;;;2.13;1.70;;;12.80;82.40;;;;;;5030218;28;20093;-84
2024/02/09 11:45:15;;;;;;;2.65;1.80;;;12.80;82.40;;;;;;5030392;28;20135;-81
2024/02/09 11:47:41;;;;;;;1.77;1.50;;;12.90;82.50;;;;;;5014221;28;20028;-93
2024/02/09 11:50:28;;;;;;;2.58;1.70;;;12.90;82.50;;;;;;5022321;28;20048;-81
2024/02/09 11:53:06;;;;;;;2.05;1.63;;;12.90;82.50;;;;;;5028915;28;20128;-90
2024/02/09 11:55:32;;;;;;;1.73;1.60;;;12.90;82.40;;;;;;5030673;28;20080;-89
2024/02/09 11:57:59;;;;;;;2.08;1.50;;;12.90;82.30;;;;;;5012970;28;20029;-84
2024/02/09 12:00:28;;;;;;;2.17;1.55;;;13.00;82.40;;;;;;5030889;28;20025;-84
2024/02/09 12:02:54;;;;;;;2.08;1.58;;;12.90;82.40;;;;;;5027129;28;20116;-80
2024/02/09 12:05:20;;;;;;;1.70;1.60;;;13.00;82.40;;;;;;5006696;28;20048;-93
2024/02/09 12:07:46;;;;;;;2.20;1.67;;;13.00;82.40;;;;;;5033994;28;20037;-93
2024/02/09 12:10:12;;;;;;;1.55;1.45;;;13.00;82.30;;;;;;5028764;28;20022;-80
2024/02/09 12:12:38;;;;;;;2.17;1.70;;;13.10;82.40;;;;;;5029180;28;20405;-94
2024/02/09 12:15:05;;;;;;;2.40;1.73;;;13.10;82.40;;;;;;5013151;28;20597;-84
2024/02/09 12:17:31;;;;;;;1.92;1.70;;;13.10;82.30;;;;;;5027175;28;20490;-84
2024/02/09 12:20:08;;;;;;;2.97;1.70;;;13.20;82.40;;;;;;5014171;28;20033;-80
2024/02/09 12:22:36;;;;;;;1.50;1.40;;;13.20;82.40;;;;;;5012779;28;20052;-94
2024/02/09 12:25:05;;;;;;;2.35;1.50;;;13.20;82.30;;;;;;5016145;28;20021;-94
2024/02/09 12:27:32;;;;;;;2.22;1.60;;;13.20;82.30;;;;;;5012300;28;20064;-90
2024/02/09 12:29:58;;;;;;;1.50;1.40;;;13.30;82.40;;;;;;5028561;28;20045;-93
2024/02/09 12:32:24;;;;;;;1.75;1.60;;;13.30;82.30;;;;;;5014010;28;20462;-84
2024/02/09 12:34:54;;;;;;;2.50;1.80;;;13.30;82.30;;;;;;5032353;28;20037;-93
2024/02/09 12:37:20;;;;;;;2.17;1.70;;;13.30;82.30;;;;;;5029597;28;20053;-80
2024/02/09 12:39:53;;;;;;;3.20;1.52;;;13.40;82.30;;;;;;5032262;28;20052;-85
2024/02/09 12:42:32;;;;;;;2.53;1.60;;;13.40;82.30;;;;;;5012949;28;20028;-81
2024/02/09 12:44:59;;;;;;;2.60;1.88;;;13.40;82.90;;;;;;5029700;28;20026;-85
2024/02/09 12:47:29;;;;;;;1.75;1.50;;;13.40;82.90;;;;;;5033580;28;20022;-85
2024/02/09 12:49:56;;;;;;;2.95;1.70;;;13.40;82.20;;;;;;5049286;28;20037;-84
2024/02/09 12:52:25;;;;;;;1.63;1.30;;;13.50;82.20;;;;;;5032867;28;20525;-89
2024/02/09 12:54:54;;;;;;;2.10;1.60;;;13.50;82.30;;;;;;5013823;28;20120;-90
2024/02/09 12:57:21;;;;;;;3.08;1.60;;;13.50;82.20;;;;;;5016616;28;20025;-94
2024/02/09 12:59:46;;;;;;;1.40;1.30;;;13.50;82.20;;;;;;5031191;28;20025;-81
2024/02/09 13:02:13;;;;;;;2.33;1.50;;;13.60;82.30;;;;;;5032553;28;20109;-89
2024/02/09 13:04:38;;;;;;;1.77;1.42;;;13.60;82.20;;;;;;5029255;28;20109;-88
2024/02/09 13:07:08;;;;;;;2.22;1.70;;;13.60;82.20;;;;;;5044100;28;20124;-84
2024/02/09 13:09:34;;;;;;;2.33;1.50;;;13.60;82.20;;;;;;5029358;28;20474;-86
2024/02/09 13:12:01;;;;;;;1.58;1.48;;;13.60;82.20;;;;;;5032608;28;20080;-89
2024/02/09 13:14:48;;;;;;;1.90;1.65;;;13.60;82.20;;;;;;5051551;28;20140;-91
2024/02/09 13:17:14;;;;;;;1.90;1.50;;;13.70;82.20;;;;;;5035934;28;20037;-86
2024/02/09 13:19:40;;;;;;;1.70;1.50;;;13.70;82.20;;;;;;5031636;28;20041;-93
2024/02/09 13:22:08;;;;;;;1.63;1.45;;;13.80;82.30;;;;;;5022387;28;20044;-87
2024/02/09 13:24:41;;;;;;;1.48;1.38;;;13.80;82.30;;;;;;5015994;28;20044;-87
2024/02/09 13:27:12;;;;;;;2.67;1.50;;;13.80;82.30;;;;;;5017023;28;20120;-80
2024/02/09 13:29:38;;;;;;;1.70;1.55;;;13.80;82.30;;;;;;5034666;28;20041;-87
2024/02/09 13:32:05;;;;;;;2.22;1.70;;;13.80;82.20;;;;;;5052403;28;20029;-95
2024/02/09 13:34:35;;;;;;;2.05;1.67;;;13.80;82.20;;;;;;5035747;28;20036;-87
2024/02/09 13:37:00;;;;;;;2.83;1.50;;;13.80;82.30;;;;;;5018459;28;20025;-85
2024/02/09 13:39:26;;;;;;;1.40;1.30;;;13.80;82.30;;;;;;5030516;28;20037;-86
2024/02/09 13:41:53;;;;;;;1.92;1.50;;;13.90;82.40;;;;;;5034217;28;20033;-81
2024/02/09 13:44:18;;;;;;;2.00;1.63;;;13.90;82.40;;;;;;5033487;28;20156;-86
2024/02/09 13:46:44;;;;;;;2.33;1.40;;;13.90;82.30;;;;;;5014838;28;20033;-87
2024/02/09 13:49:10;;;;;;;3.45;1.80;;;13.90;82.30;;;;;;5033795;28;20113;-80
2024/02/09 13:51:36;;;;;;;2.35;1.70;;;13.90;82.30;;;;;;5031645;28;20029;-96
2024/02/09 13:54:02;;;;;;;1.67;1.55;;;13.90;82.30;;;;;;5034229;28;20017;-86
2024/02/09 13:56:28;;;;;;;2.60;1.60;;;13.90;82.40;;;;;;5023078;28;20349;-80
2024/02/09 13:58:54;;;;;;;2.38;1.70;;;13.90;82.40;;;;;;5029936;28;20033;-86
2024/02/09 14:01:22;;;;;;;2.15;1.67;;;14.00;82.40;;;;;;5020533;28;20061;-95
2024/02/09 14:03:50;;;;;;;2.20;1.60;;;14.00;82.40;;;;;;5025539;28;20128;-92
2024/02/09 14:06:17;;;;;;;2.42;1.63;;;14.00;82.40;;;;;;5034019;28;20116;-86
2024/02/09 14:08:45;;;;;;;1.88;1.48;;;14.00;82.40;;;;;;5012611;28;20037;-88
2024/02/09 14:11:18;;;;;;;1.55;1.40;;;14.00;83.00;;;;;;5030759;28;20040;-95
2024/02/09 14:13:46;;;;;;;2.47;1.80;;;14.00;82.40;;;;;;5015538;28;20044;-85
2024/02/09 14:16:12;;;;;;;2.15;1.42;;;14.00;82.40;;;;;;5032693;28;20523;-88
2024/02/09 14:18:39;;;;;;;1.80;1.60;;;14.10;82.40;;;;;;5030565;28;20025;-80
2024/02/09 14:21:07;;;;;;;1.73;1.50;;;14.10;82.40;;;;;;5025912;28;20108;-80
2024/02/09 14:23:33;;;;;;;1.88;1.55;;;14.10;82.50;;;;;;5033992;28;20068;-88
2024/02/09 14:25:59;;;;;;;2.25;1.70;;;14.10;82.50;;;;;;5034383;28;20022;-80
2024/02/09 14:28:28;;;;;;;1.98;1.50;;;14.10;82.50;;;;;;5013979;28;20041;-95
2024/02/09 14:30:56;;;;;;;2.00;1.40;;;14.10;82.50;;;;;;5015331;28;20056;-80
2024/02/09 14:33:22;;;;;;;1.70;1.60;;;14.10;82.50;;;;;;5014598;28;20026;-80
2024/02/09 14:35:48;;;;;;;2.05;1.45;;;14.10;82.50;;;;;;5045314;28;20474;-80
2024/02/09 14:38:15;;;;;;;1.60;1.38;;;14.10;82.50;;;;;;5043189;28;20021;-90
2024/02/09 14:40:41;;;;;;;1.63;1.52;;;14.10;82.50;;;;;;5031363;28;20377;-93